• Join FlightAware (Why Join?)
  • Login
  • US Flag 
09:03AM EST


 

Airport Tracker/Info


-or-


 

Live Flight TrackerFlight Track Log ✈ AAY876 ✈ 18-Mar-2014 ✈ KCHA - KRFD

Flight Track Log - Related Links

Times and Time Zones

All times are in EDT time to prevent confusion due to time zone crossing. See the AAY876 flight status page for this flight to view local times or setup timezone preferences in your user account.

Time Position Orientation Groundspeed Altitude Reporting Facility
EDT Latitude Longitude Course Direction KTS MPH feet Rate Location/Type
07:10PM 35.3272 -85.4473 334° Northwest 355 409 14,800  Level FlightAware ADS-B (KMDQ)
07:11PM 35.6183 -85.5761 330° Northwest  Level FlightAware Approximate
07:11PM 35.4221 -85.5051 333° Northwest 361 415 17,600  Level FlightAware ADS-B (KMDQ)
07:12PM 35.4834 -85.5425 334° Northwest 372 428 19,100 2,220 Climbing FlightAware ADS-B (KMDQ)
07:12PM 35.5471 -85.5815 334° Northwest 381 438 20,600 2,100 Climbing FlightAware ADS-B (KMDQ)
07:13PM 35.6115 -85.6208 333° Northwest 392 451 21,900 1,980 Climbing FlightAware ADS-B (KMDQ)
07:14PM 35.6726 -85.6582 334° Northwest 398 458 23,300 2,160 Climbing FlightAware ADS-B (KMDQ)
07:14PM 35.7359 -85.6970 333° Northwest 394 453 24,800 1,860 Climbing FlightAware ADS-B (KMDQ)
07:15PM 35.8090 -85.7421 333° Northwest 405 466 25,800 1,560 Climbing FlightAware ADS-B (KMDQ)
07:16PM 35.8681 -85.7785 333° Northwest 410 472 26,900 1,560 Climbing FlightAware ADS-B (KMDQ)
07:16PM 35.9350 -85.8198 333° Northwest 414 476 27,900 1,800 Climbing FlightAware ADS-B (KMDQ)
07:17PM 36.0084 -85.8651 333° Northwest 406 467 29,300 1,560 Climbing FlightAware ADS-B (KMDQ)
07:18PM 36.0679 -85.9020 333° Northwest 416 479 30,000 1,500 Climbing FlightAware ADS-B (KMDQ)
07:19PM 36.2096 -85.9900 333° Northwest 409 471 32,300 1,320 Climbing FlightAware ADS-B (KMDQ)
07:23PM 36.5884 -86.2275 333° Northwest 403 464 36,600 1,140 Climbing FlightAware ADS-B
07:24PM 36.6650 -86.2759 333° Northwest 407 468 37,400 660 Climbing FlightAware ADS-B
07:25PM 36.7876 -86.3531 333° Northwest 408 470 38,000 240 Climbing FlightAware ADS-B
07:26PM 36.8348 -86.3830 334° Northwest 407 468 38,000  Level FlightAware ADS-B
07:26PM 36.9434 -86.4451 341° North 420 483 38,000  Level FlightAware ADS-B (EPWR / WRO)
07:27PM 37.0278 -86.4731 347° North 430 495 38,000  Level FlightAware ADS-B (EPWR / WRO)
07:27PM 37.0882 -86.4914 346° North 428 493 38,000  Level FlightAware ADS-B (EPWR / WRO)
07:28PM 37.1416 -86.5079 346° North 428 493 38,000  Level FlightAware ADS-B (EPWR / WRO)
07:28PM 37.1992 -86.5256 346° North 428 493 38,000  Level FlightAware ADS-B (EPWR / WRO)
07:29PM 37.2589 -86.5439 346° North 427 491 38,000  Level FlightAware ADS-B (EPWR / WRO)
07:30PM 37.3476 -86.5709 346° North 427 491 38,000  Level FlightAware ADS-B
07:30PM 37.4054 -86.5886 346° North 425 489 38,000  Level FlightAware ADS-B (EPWR / WRO)
07:31PM 37.4626 -86.6062 346° North 422 486 38,000  Level FlightAware ADS-B
07:31PM 37.5217 -86.6245 346° North 421 484 38,000 60 Level FlightAware ADS-B (EPWR / WRO)
07:32PM 37.6044 -86.6501 346° North 420 483 38,100  Climbing FlightAware ADS-B (EPWR / WRO)
07:33PM 37.6868 -86.6756 346° North 420 483 38,000 -120 Descending FlightAware ADS-B
07:33PM 37.7467 -86.6943 346° North 420 483 38,000  Level FlightAware ADS-B (EPWR / WRO)
07:34PM 37.8046 -86.7122 346° North 420 483 38,000  Level FlightAware ADS-B
07:34PM 37.8684 -86.7320 346° North 419 482 38,000  Level FlightAware ADS-B (EPWR / WRO)
07:35PM 37.9725 -86.7646 346° North 419 482 38,000  Level FlightAware ADS-B (EPWR / WRO)
07:36PM 38.0313 -86.7829 346° North 420 483 38,000  Level FlightAware ADS-B
07:36PM 38.0486 -86.7883 346° North 421 484 38,000  Level FlightAware ADS-B
07:37PM 38.1979 -86.8353 346° North 422 486 38,000  Level FlightAware ADS-B (EPWR / WRO)
07:38PM 38.2555 -86.8534 346° North 423 487 38,000  Level FlightAware ADS-B
07:39PM 38.3431 -86.8810 346° North 426 490 38,000  Level FlightAware ADS-B (EPWR / WRO)
07:41PM 38.6057 -86.9642 346° North 430 495 38,100  Climbing FlightAware ADS-B
07:43PM 38.8902 -87.0549 346° North 433 498 38,000  Descending FlightAware ADS-B
07:47PM 39.3145 -87.1919 346° North 441 507 38,100  Climbing FlightAware ADS-B (KCVG)
07:48PM 39.4189 -87.2258 346° North 442 509 38,100 -60 Level FlightAware ADS-B (KMDW)
07:53PM 39.9588 -87.4864 339° North 429 494 38,000 -240 Descending FlightAware ADS-B (KMDW)
07:54PM 40.0583 -87.5376 339° North 433 498 36,900 -900 Descending FlightAware ADS-B (KMDW)
07:55PM 40.2192 -87.6201 339° North 437 503 36,000 -540 Descending FlightAware ADS-B (KMDW)
07:56PM 40.2826 -87.6529 338° Northwest 437 503 36,000  Level FlightAware ADS-B (KMDW)
07:56PM 40.3519 -87.6887 339° North 437 503 36,000  Level FlightAware ADS-B (KMDW)
07:57PM 40.4186 -87.7399 335° Northwest 432 497 36,000  Level FlightAware ADS-B (KMDW)
07:57PM 40.4253 -87.7481 317° Northwest 405 466 36,000  Level FlightAware ADS-B (KMDW)
07:58PM 40.4959 -87.8324 318° Northwest 411 473 36,000 -1,080 Level FlightAware ADS-B (KMDW)
08:00PM 40.6642 -88.0323 318° Northwest 422 486 32,700 -1,320 Descending FlightAware ADS-B
08:01PM 40.7449 -88.1287 318° Northwest 416 479 32,200 -960 Descending FlightAware ADS-B
08:02PM 40.8367 -88.2393 318° Northwest 417 480 31,100 -1,500 Descending FlightAware ADS-B
08:02PM 40.8838 -88.2962 318° Northwest 411 473 29,800 -2,280 Descending FlightAware ADS-B
08:03PM 40.9254 -88.3464 318° Northwest 407 468 28,700 -1,680 Descending FlightAware ADS-B
08:03PM 40.9737 -88.4050 318° Northwest 410 472 28,000 -1,920 Descending FlightAware ADS-B (KMDW)
08:04PM 41.0232 -88.4650 318° Northwest 407 468 26,300 -2,400 Descending FlightAware ADS-B (KMDW)
08:05PM 41.0981 -88.5560 317° Northwest 391 450 24,400 -2,220 Descending FlightAware ADS-B (KMDW)
08:06PM 41.1639 -88.6370 317° Northwest 408 470 22,700 -2,220 Descending FlightAware ADS-B (KMDW)
08:06PM 41.2039 -88.6858 318° Northwest 396 456 21,500 -1,320 Descending FlightAware ADS-B (KMDW)
08:07PM 41.2690 -88.7652 317° Northwest 376 433 21,000 -420 Descending FlightAware ADS-B (KMDW)
08:07PM 41.3124 -88.8182 317° Northwest 377 434 21,000  Level FlightAware ADS-B (KPWK)
08:08PM 41.3691 -88.8881 317° Northwest 346 398 21,000 -480 Level FlightAware ADS-B (KMDW)
08:09PM 41.4002 -88.9266 317° Northwest 344 396 20,400 -1,800 Descending FlightAware ADS-B (KMDW)
08:09PM 41.4325 -88.9668 317° Northwest 357 411 19,100 -1,920 Descending FlightAware ADS-B (KPWK)
08:10PM 41.4879 -89.0355 317° Northwest 359 413 18,200 -1,500 Descending FlightAware ADS-B (KMDW)
08:10PM 41.5252 -89.0816 317° Northwest 345 397 17,500 -1,320 Descending FlightAware ADS-B (KMDW)
08:11PM 41.5712 -89.1385 317° Northwest 326 375 16,700 -1,200 Descending FlightAware ADS-B (KMDW)
08:12PM 41.6138 -89.1917 317° Northwest 324 373 15,900 -1,740 Descending FlightAware ADS-B (KMDW)
08:12PM 41.6474 -89.2338 317° Northwest 333 383 14,700 -2,100 Descending FlightAware ADS-B (KMDW)
08:14PM 41.6474 -89.2338 341° North 334 384 11,000 -1,920 Descending FlightAware ADS-B (KMDW)
08:15PM 41.8425 -89.3406 341° North 343 395 10,000 -2,220 Descending Chicago Center
08:16PM 41.9486 -89.3325 North 320 368 7,400 -2,340 Descending Chicago Center
08:17PM 42.0369 -89.3169 North 321 369 5,200 -1,500 Descending Chicago Center
08:18PM 42.1214 -89.2828 17° North 296 341 4,300 -780 Descending Chicago Center
08:19PM 42.1725 -89.2194 43° Northeast 264 304 3,600 -720 Descending Chicago Center
08:21PM 42.1954 -89.0972 20° North  Level Estimated